sensor_id;sensor_type;location;lat;lon;timestamp;P1;durP1;ratioP1;P2;durP2;ratioP2
22334;SDS011;11335;43.848;25.958;2023-03-14T00:01:30;6.45;;;3.10;;
22334;SDS011;11335;43.848;25.958;2023-03-14T00:04:16;5.22;;;2.75;;
22334;SDS011;11335;43.848;25.958;2023-03-14T00:07:02;6.63;;;3.20;;
22334;SDS011;11335;43.848;25.958;2023-03-14T00:09:47;3.85;;;2.92;;
22334;SDS011;11335;43.848;25.958;2023-03-14T00:12:33;5.00;;;3.00;;
22334;SDS011;11335;43.848;25.958;2023-03-14T00:15:19;4.88;;;2.83;;
22334;SDS011;11335;43.848;25.958;2023-03-14T00:18:04;5.15;;;2.78;;
22334;SDS011;11335;43.848;25.958;2023-03-14T00:20:50;5.03;;;3.00;;
22334;SDS011;11335;43.848;25.958;2023-03-14T00:23:36;5.18;;;3.20;;
22334;SDS011;11335;43.848;25.958;2023-03-14T00:26:22;5.60;;;3.17;;
22334;SDS011;11335;43.848;25.958;2023-03-14T00:29:08;5.57;;;3.30;;
22334;SDS011;11335;43.848;25.958;2023-03-14T00:31:53;5.78;;;3.53;;
22334;SDS011;11335;43.848;25.958;2023-03-14T00:34:39;6.28;;;3.65;;
22334;SDS011;11335;43.848;25.958;2023-03-14T00:37:25;6.80;;;3.85;;
22334;SDS011;11335;43.848;25.958;2023-03-14T00:40:10;5.82;;;3.38;;
22334;SDS011;11335;43.848;25.958;2023-03-14T00:42:56;7.18;;;3.55;;
22334;SDS011;11335;43.848;25.958;2023-03-14T00:45:42;6.57;;;3.83;;
22334;SDS011;11335;43.848;25.958;2023-03-14T00:48:27;8.48;;;4.55;;
22334;SDS011;11335;43.848;25.958;2023-03-14T00:51:13;8.55;;;4.43;;
22334;SDS011;11335;43.848;25.958;2023-03-14T00:54:00;8.32;;;4.50;;
22334;SDS011;11335;43.848;25.958;2023-03-14T00:56:46;6.90;;;4.38;;
22334;SDS011;11335;43.848;25.958;2023-03-14T00:59:31;7.00;;;4.43;;
22334;SDS011;11335;43.848;25.958;2023-03-14T01:02:17;6.38;;;4.13;;
22334;SDS011;11335;43.848;25.958;2023-03-14T01:05:02;6.80;;;4.10;;
22334;SDS011;11335;43.848;25.958;2023-03-14T01:07:49;10.88;;;4.30;;
22334;SDS011;11335;43.848;25.958;2023-03-14T01:10:37;10.05;;;4.90;;
22334;SDS011;11335;43.848;25.958;2023-03-14T01:13:23;8.00;;;4.78;;
22334;SDS011;11335;43.848;25.958;2023-03-14T01:16:09;7.07;;;4.45;;
22334;SDS011;11335;43.848;25.958;2023-03-14T01:18:55;6.72;;;4.70;;
22334;SDS011;11335;43.848;25.958;2023-03-14T01:21:41;9.27;;;4.85;;
22334;SDS011;11335;43.848;25.958;2023-03-14T01:24:26;10.43;;;4.90;;
22334;SDS011;11335;43.848;25.958;2023-03-14T01:27:12;9.70;;;4.80;;
22334;SDS011;11335;43.848;25.958;2023-03-14T01:29:58;8.73;;;4.55;;
22334;SDS011;11335;43.848;25.958;2023-03-14T01:32:44;6.72;;;3.85;;
22334;SDS011;11335;43.848;25.958;2023-03-14T01:35:29;6.05;;;3.88;;
22334;SDS011;11335;43.848;25.958;2023-03-14T01:38:15;8.23;;;4.82;;
22334;SDS011;11335;43.848;25.958;2023-03-14T01:41:00;8.38;;;5.15;;
22334;SDS011;11335;43.848;25.958;2023-03-14T01:43:46;8.00;;;5.20;;
22334;SDS011;11335;43.848;25.958;2023-03-14T01:46:44;7.03;;;4.72;;
22334;SDS011;11335;43.848;25.958;2023-03-14T01:49:34;8.55;;;5.28;;
22334;SDS011;11335;43.848;25.958;2023-03-14T01:52:25;8.32;;;4.93;;
22334;SDS011;11335;43.848;25.958;2023-03-14T01:55:14;8.57;;;4.85;;
22334;SDS011;11335;43.848;25.958;2023-03-14T01:58:01;7.43;;;5.10;;
22334;SDS011;11335;43.848;25.958;2023-03-14T02:00:48;9.15;;;4.93;;
22334;SDS011;11335;43.848;25.958;2023-03-14T02:03:35;9.07;;;5.28;;
22334;SDS011;11335;43.848;25.958;2023-03-14T02:06:24;10.43;;;5.32;;
22334;SDS011;11335;43.848;25.958;2023-03-14T02:09:11;11.93;;;5.25;;
22334;SDS011;11335;43.848;25.958;2023-03-14T02:11:57;8.07;;;5.05;;
22334;SDS011;11335;43.848;25.958;2023-03-14T02:14:43;10.18;;;4.55;;
22334;SDS011;11335;43.848;25.958;2023-03-14T02:17:33;7.28;;;4.40;;
22334;SDS011;11335;43.848;25.958;2023-03-14T02:20:23;8.00;;;4.65;;
22334;SDS011;11335;43.848;25.958;2023-03-14T02:23:10;8.50;;;5.05;;
22334;SDS011;11335;43.848;25.958;2023-03-14T02:26:30;8.10;;;5.28;;
22334;SDS011;11335;43.848;25.958;2023-03-14T02:29:08;9.13;;;5.25;;
22334;SDS011;11335;43.848;25.958;2023-03-14T02:31:53;10.57;;;5.88;;
22334;SDS011;11335;43.848;25.958;2023-03-14T02:34:39;13.30;;;6.63;;
22334;SDS011;11335;43.848;25.958;2023-03-14T02:37:36;12.68;;;6.18;;
22334;SDS011;11335;43.848;25.958;2023-03-14T02:40:23;9.93;;;6.00;;
22334;SDS011;11335;43.848;25.958;2023-03-14T02:43:09;8.93;;;5.82;;
22334;SDS011;11335;43.848;25.958;2023-03-14T02:45:54;10.07;;;5.40;;
22334;SDS011;11335;43.848;25.958;2023-03-14T02:48:45;11.70;;;6.32;;
22334;SDS011;11335;43.848;25.958;2023-03-14T02:51:32;9.68;;;6.00;;
22334;SDS011;11335;43.848;25.958;2023-03-14T02:54:18;10.90;;;6.30;;
22334;SDS011;11335;43.848;25.958;2023-03-14T02:57:04;14.15;;;6.18;;
22334;SDS011;11335;43.848;25.958;2023-03-14T02:59:50;10.50;;;5.97;;
22334;SDS011;11335;43.848;25.958;2023-03-14T03:02:36;12.15;;;5.88;;
22334;SDS011;11335;43.848;25.958;2023-03-14T03:05:21;10.65;;;6.00;;
22334;SDS011;11335;43.848;25.958;2023-03-14T03:08:07;9.68;;;5.97;;
22334;SDS011;11335;43.848;25.958;2023-03-14T03:10:53;10.75;;;5.85;;
22334;SDS011;11335;43.848;25.958;2023-03-14T03:13:39;10.00;;;5.97;;
22334;SDS011;11335;43.848;25.958;2023-03-14T03:16:24;9.52;;;5.95;;
22334;SDS011;11335;43.848;25.958;2023-03-14T03:19:10;8.45;;;6.03;;
22334;SDS011;11335;43.848;25.958;2023-03-14T03:21:56;10.40;;;6.38;;
22334;SDS011;11335;43.848;25.958;2023-03-14T03:24:41;8.88;;;5.95;;
22334;SDS011;11335;43.848;25.958;2023-03-14T03:27:29;12.15;;;6.07;;
22334;SDS011;11335;43.848;25.958;2023-03-14T03:30:14;11.95;;;6.18;;
22334;SDS011;11335;43.848;25.958;2023-03-14T03:33:00;11.10;;;6.38;;
22334;SDS011;11335;43.848;25.958;2023-03-14T03:35:47;12.65;;;6.30;;
22334;SDS011;11335;43.848;25.958;2023-03-14T03:38:33;9.27;;;5.28;;
22334;SDS011;11335;43.848;25.958;2023-03-14T03:41:18;13.25;;;6.10;;
22334;SDS011;11335;43.848;25.958;2023-03-14T03:44:04;8.52;;;6.03;;
22334;SDS011;11335;43.848;25.958;2023-03-14T03:46:51;10.52;;;5.43;;
22334;SDS011;11335;43.848;25.958;2023-03-14T03:49:37;9.85;;;5.40;;
22334;SDS011;11335;43.848;25.958;2023-03-14T03:52:23;8.88;;;5.50;;
22334;SDS011;11335;43.848;25.958;2023-03-14T03:55:08;9.93;;;5.80;;
22334;SDS011;11335;43.848;25.958;2023-03-14T03:57:54;9.13;;;5.50;;
22334;SDS011;11335;43.848;25.958;2023-03-14T04:00:40;9.82;;;5.30;;
22334;SDS011;11335;43.848;25.958;2023-03-14T04:03:25;9.98;;;5.13;;
22334;SDS011;11335;43.848;25.958;2023-03-14T04:06:11;10.30;;;4.47;;
22334;SDS011;11335;43.848;25.958;2023-03-14T04:08:57;7.32;;;4.82;;
22334;SDS011;11335;43.848;25.958;2023-03-14T04:11:43;10.50;;;5.13;;
22334;SDS011;11335;43.848;25.958;2023-03-14T04:14:29;8.50;;;4.70;;
22334;SDS011;11335;43.848;25.958;2023-03-14T04:17:14;9.52;;;4.65;;
22334;SDS011;11335;43.848;25.958;2023-03-14T04:20:00;6.80;;;4.03;;
22334;SDS011;11335;43.848;25.958;2023-03-14T04:22:45;16.65;;;4.78;;
22334;SDS011;11335;43.848;25.958;2023-03-14T04:25:31;17.23;;;4.45;;
22334;SDS011;11335;43.848;25.958;2023-03-14T04:28:17;18.90;;;5.03;;
22334;SDS011;11335;43.848;25.958;2023-03-14T04:31:09;13.45;;;4.28;;
22334;SDS011;11335;43.848;25.958;2023-03-14T04:33:55;13.45;;;3.50;;
22334;SDS011;11335;43.848;25.958;2023-03-14T04:36:40;7.47;;;3.03;;
22334;SDS011;11335;43.848;25.958;2023-03-14T04:39:26;10.60;;;3.22;;
22334;SDS011;11335;43.848;25.958;2023-03-14T04:42:12;5.38;;;2.70;;
22334;SDS011;11335;43.848;25.958;2023-03-14T04:44:57;6.28;;;3.10;;
22334;SDS011;11335;43.848;25.958;2023-03-14T04:47:43;7.10;;;2.63;;
22334;SDS011;11335;43.848;25.958;2023-03-14T04:50:28;6.82;;;3.25;;
22334;SDS011;11335;43.848;25.958;2023-03-14T04:53:14;7.57;;;3.03;;
22334;SDS011;11335;43.848;25.958;2023-03-14T04:56:00;5.47;;;2.95;;
22334;SDS011;11335;43.848;25.958;2023-03-14T04:58:46;18.70;;;3.17;;
22334;SDS011;11335;43.848;25.958;2023-03-14T05:01:32;7.07;;;3.38;;
22334;SDS011;11335;43.848;25.958;2023-03-14T05:04:17;9.63;;;5.70;;
22334;SDS011;11335;43.848;25.958;2023-03-14T05:07:03;17.10;;;6.35;;
22334;SDS011;11335;43.848;25.958;2023-03-14T05:09:48;15.23;;;6.38;;
22334;SDS011;11335;43.848;25.958;2023-03-14T05:12:34;18.45;;;5.85;;
22334;SDS011;11335;43.848;25.958;2023-03-14T05:15:20;11.00;;;5.22;;
22334;SDS011;11335;43.848;25.958;2023-03-14T05:18:05;8.65;;;5.18;;
22334;SDS011;11335;43.848;25.958;2023-03-14T05:20:51;12.57;;;5.53;;
22334;SDS011;11335;43.848;25.958;2023-03-14T05:23:37;10.15;;;5.78;;
22334;SDS011;11335;43.848;25.958;2023-03-14T05:26:23;12.98;;;6.28;;
22334;SDS011;11335;43.848;25.958;2023-03-14T05:29:08;11.90;;;6.22;;
22334;SDS011;11335;43.848;25.958;2023-03-14T05:31:54;18.75;;;7.35;;
22334;SDS011;11335;43.848;25.958;2023-03-14T05:34:39;11.27;;;6.90;;
22334;SDS011;11335;43.848;25.958;2023-03-14T05:37:25;19.33;;;7.00;;
22334;SDS011;11335;43.848;25.958;2023-03-14T05:40:11;17.13;;;6.50;;
22334;SDS011;11335;43.848;25.958;2023-03-14T05:42:57;15.20;;;7.63;;
22334;SDS011;11335;43.848;25.958;2023-03-14T05:45:42;20.55;;;7.90;;
22334;SDS011;11335;43.848;25.958;2023-03-14T05:48:28;13.63;;;6.93;;
22334;SDS011;11335;43.848;25.958;2023-03-14T05:51:14;15.60;;;7.05;;
22334;SDS011;11335;43.848;25.958;2023-03-14T05:53:59;21.50;;;6.97;;
22334;SDS011;11335;43.848;25.958;2023-03-14T05:56:45;23.60;;;7.30;;
22334;SDS011;11335;43.848;25.958;2023-03-14T05:59:30;17.75;;;7.15;;
22334;SDS011;11335;43.848;25.958;2023-03-14T06:02:16;23.83;;;7.57;;
22334;SDS011;11335;43.848;25.958;2023-03-14T06:05:02;23.25;;;7.35;;
22334;SDS011;11335;43.848;25.958;2023-03-14T06:07:47;18.52;;;6.35;;
22334;SDS011;11335;43.848;25.958;2023-03-14T06:10:34;18.08;;;7.82;;
22334;SDS011;11335;43.848;25.958;2023-03-14T06:13:20;13.15;;;6.90;;
22334;SDS011;11335;43.848;25.958;2023-03-14T06:16:06;18.33;;;6.15;;
22334;SDS011;11335;43.848;25.958;2023-03-14T06:18:51;16.02;;;7.07;;
22334;SDS011;11335;43.848;25.958;2023-03-14T06:21:37;21.30;;;10.10;;
22334;SDS011;11335;43.848;25.958;2023-03-14T06:24:23;24.67;;;10.90;;
22334;SDS011;11335;43.848;25.958;2023-03-14T06:27:08;24.10;;;10.75;;
22334;SDS011;11335;43.848;25.958;2023-03-14T06:29:54;21.52;;;11.15;;
22334;SDS011;11335;43.848;25.958;2023-03-14T06:32:39;18.60;;;10.07;;
22334;SDS011;11335;43.848;25.958;2023-03-14T06:35:25;32.85;;;11.20;;
22334;SDS011;11335;43.848;25.958;2023-03-14T06:38:10;37.55;;;11.00;;
22334;SDS011;11335;43.848;25.958;2023-03-14T06:40:56;22.45;;;10.60;;
22334;SDS011;11335;43.848;25.958;2023-03-14T06:43:42;24.92;;;10.38;;
22334;SDS011;11335;43.848;25.958;2023-03-14T06:46:27;21.80;;;9.27;;
22334;SDS011;11335;43.848;25.958;2023-03-14T06:49:13;17.58;;;8.48;;
22334;SDS011;11335;43.848;25.958;2023-03-14T06:51:58;23.27;;;8.23;;
22334;SDS011;11335;43.848;25.958;2023-03-14T06:54:44;22.48;;;9.30;;
22334;SDS011;11335;43.848;25.958;2023-03-14T06:57:29;19.85;;;9.85;;
22334;SDS011;11335;43.848;25.958;2023-03-14T07:00:15;18.58;;;9.43;;
22334;SDS011;11335;43.848;25.958;2023-03-14T07:03:01;18.75;;;10.55;;
22334;SDS011;11335;43.848;25.958;2023-03-14T07:05:46;19.80;;;9.80;;
22334;SDS011;11335;43.848;25.958;2023-03-14T07:08:32;23.80;;;10.65;;
22334;SDS011;11335;43.848;25.958;2023-03-14T07:11:18;19.10;;;10.02;;
22334;SDS011;11335;43.848;25.958;2023-03-14T07:14:03;18.98;;;11.15;;
22334;SDS011;11335;43.848;25.958;2023-03-14T07:16:49;20.13;;;10.90;;
22334;SDS011;11335;43.848;25.958;2023-03-14T07:19:34;20.58;;;10.93;;
22334;SDS011;11335;43.848;25.958;2023-03-14T07:22:20;24.75;;;10.82;;
22334;SDS011;11335;43.848;25.958;2023-03-14T07:25:06;17.38;;;9.52;;
22334;SDS011;11335;43.848;25.958;2023-03-14T07:27:51;25.40;;;9.95;;
22334;SDS011;11335;43.848;25.958;2023-03-14T07:30:37;18.70;;;8.02;;
22334;SDS011;11335;43.848;25.958;2023-03-14T07:33:22;19.35;;;7.53;;
22334;SDS011;11335;43.848;25.958;2023-03-14T07:36:08;18.58;;;7.57;;
22334;SDS011;11335;43.848;25.958;2023-03-14T07:38:54;18.27;;;8.32;;
22334;SDS011;11335;43.848;25.958;2023-03-14T07:41:39;17.90;;;7.10;;
22334;SDS011;11335;43.848;25.958;2023-03-14T07:44:25;23.75;;;7.68;;
22334;SDS011;11335;43.848;25.958;2023-03-14T07:47:11;12.10;;;6.75;;
22334;SDS011;11335;43.848;25.958;2023-03-14T07:49:57;20.98;;;8.45;;
22334;SDS011;11335;43.848;25.958;2023-03-14T07:52:42;17.90;;;7.63;;
22334;SDS011;11335;43.848;25.958;2023-03-14T07:55:28;13.55;;;7.68;;
22334;SDS011;11335;43.848;25.958;2023-03-14T07:58:14;13.85;;;7.43;;
22334;SDS011;11335;43.848;25.958;2023-03-14T08:00:59;16.25;;;7.00;;
22334;SDS011;11335;43.848;25.958;2023-03-14T08:03:45;12.70;;;6.88;;
22334;SDS011;11335;43.848;25.958;2023-03-14T08:06:31;18.77;;;7.32;;
22334;SDS011;11335;43.848;25.958;2023-03-14T08:09:16;15.30;;;7.65;;
22334;SDS011;11335;43.848;25.958;2023-03-14T08:12:02;27.02;;;7.63;;
22334;SDS011;11335;43.848;25.958;2023-03-14T08:14:47;15.43;;;6.38;;
22334;SDS011;11335;43.848;25.958;2023-03-14T08:17:33;18.20;;;7.50;;
22334;SDS011;11335;43.848;25.958;2023-03-14T08:20:19;12.20;;;6.60;;
22334;SDS011;11335;43.848;25.958;2023-03-14T08:23:04;18.58;;;6.90;;
22334;SDS011;11335;43.848;25.958;2023-03-14T08:25:50;12.55;;;6.65;;
22334;SDS011;11335;43.848;25.958;2023-03-14T08:28:36;15.55;;;6.35;;
22334;SDS011;11335;43.848;25.958;2023-03-14T08:31:22;10.10;;;5.97;;
22334;SDS011;11335;43.848;25.958;2023-03-14T08:34:07;11.45;;;6.07;;
22334;SDS011;11335;43.848;25.958;2023-03-14T08:36:53;15.95;;;6.10;;
22334;SDS011;11335;43.848;25.958;2023-03-14T08:39:40;13.23;;;6.25;;
22334;SDS011;11335;43.848;25.958;2023-03-14T08:42:26;15.90;;;5.70;;
22334;SDS011;11335;43.848;25.958;2023-03-14T08:45:12;19.35;;;5.63;;
22334;SDS011;11335;43.848;25.958;2023-03-14T08:47:58;10.48;;;5.18;;
22334;SDS011;11335;43.848;25.958;2023-03-14T08:50:44;13.27;;;5.63;;
22334;SDS011;11335;43.848;25.958;2023-03-14T08:53:30;14.70;;;7.38;;
22334;SDS011;11335;43.848;25.958;2023-03-14T08:56:15;69.43;;;30.85;;
22334;SDS011;11335;43.848;25.958;2023-03-14T08:59:01;13.10;;;6.05;;
22334;SDS011;11335;43.848;25.958;2023-03-14T09:01:46;14.15;;;6.32;;
22334;SDS011;11335;43.848;25.958;2023-03-14T09:04:32;12.02;;;5.60;;
22334;SDS011;11335;43.848;25.958;2023-03-14T09:07:18;12.10;;;5.07;;
22334;SDS011;11335;43.848;25.958;2023-03-14T09:10:04;12.80;;;4.93;;
22334;SDS011;11335;43.848;25.958;2023-03-14T09:12:50;12.13;;;5.20;;
22334;SDS011;11335;43.848;25.958;2023-03-14T09:15:36;8.88;;;4.43;;
22334;SDS011;11335;43.848;25.958;2023-03-14T09:18:23;6.75;;;4.05;;
22334;SDS011;11335;43.848;25.958;2023-03-14T09:21:08;15.65;;;4.57;;
22334;SDS011;11335;43.848;25.958;2023-03-14T09:23:54;7.88;;;4.13;;
22334;SDS011;11335;43.848;25.958;2023-03-14T09:26:39;10.20;;;4.30;;
22334;SDS011;11335;43.848;25.958;2023-03-14T09:29:25;14.63;;;4.47;;
22334;SDS011;11335;43.848;25.958;2023-03-14T09:32:11;13.70;;;4.78;;
22334;SDS011;11335;43.848;25.958;2023-03-14T09:34:56;9.60;;;3.85;;
22334;SDS011;11335;43.848;25.958;2023-03-14T09:37:42;12.70;;;4.15;;
22334;SDS011;11335;43.848;25.958;2023-03-14T09:40:31;10.93;;;4.72;;
22334;SDS011;11335;43.848;25.958;2023-03-14T09:43:17;9.43;;;4.50;;
22334;SDS011;11335;43.848;25.958;2023-03-14T09:46:03;9.38;;;4.80;;
22334;SDS011;11335;43.848;25.958;2023-03-14T09:48:49;17.63;;;4.28;;
22334;SDS011;11335;43.848;25.958;2023-03-14T09:51:34;11.82;;;4.28;;
22334;SDS011;11335;43.848;25.958;2023-03-14T09:54:29;18.73;;;4.93;;
22334;SDS011;11335;43.848;25.958;2023-03-14T09:57:16;12.23;;;4.43;;
22334;SDS011;11335;43.848;25.958;2023-03-14T10:00:06;9.05;;;4.28;;
22334;SDS011;11335;43.848;25.958;2023-03-14T10:05:53;9.10;;;3.20;;
22334;SDS011;11335;43.848;25.958;2023-03-14T10:08:43;16.08;;;4.00;;
22334;SDS011;11335;43.848;25.958;2023-03-14T10:11:28;12.35;;;4.80;;
22334;SDS011;11335;43.848;25.958;2023-03-14T10:14:14;8.10;;;3.40;;
22334;SDS011;11335;43.848;25.958;2023-03-14T10:17:13;9.40;;;3.60;;
22334;SDS011;11335;43.848;25.958;2023-03-14T10:19:59;9.18;;;3.58;;
22334;SDS011;11335;43.848;25.958;2023-03-14T10:22:45;9.40;;;3.65;;
22334;SDS011;11335;43.848;25.958;2023-03-14T10:25:33;8.02;;;4.00;;
22334;SDS011;11335;43.848;25.958;2023-03-14T10:31:14;8.45;;;3.90;;
22334;SDS011;11335;43.848;25.958;2023-03-14T10:34:01;7.32;;;3.63;;
22334;SDS011;11335;43.848;25.958;2023-03-14T10:36:51;12.68;;;3.53;;
22334;SDS011;11335;43.848;25.958;2023-03-14T10:39:38;7.60;;;3.90;;
22334;SDS011;11335;43.848;25.958;2023-03-14T10:42:28;6.40;;;3.50;;
22334;SDS011;11335;43.848;25.958;2023-03-14T10:45:38;5.82;;;3.30;;
22334;SDS011;11335;43.848;25.958;2023-03-14T10:48:24;6.07;;;2.72;;
22334;SDS011;11335;43.848;25.958;2023-03-14T10:51:28;4.90;;;3.10;;
22334;SDS011;11335;43.848;25.958;2023-03-14T10:54:19;22.52;;;4.50;;
22334;SDS011;11335;43.848;25.958;2023-03-14T10:57:05;7.53;;;3.67;;
22334;SDS011;11335;43.848;25.958;2023-03-14T10:59:52;5.53;;;3.10;;
22334;SDS011;11335;43.848;25.958;2023-03-14T11:11:18;6.82;;;2.60;;
22334;SDS011;11335;43.848;25.958;2023-03-14T11:16:54;5.22;;;2.95;;
22334;SDS011;11335;43.848;25.958;2023-03-14T11:19:49;5.22;;;2.90;;
22334;SDS011;11335;43.848;25.958;2023-03-14T11:22:50;9.18;;;2.88;;
22334;SDS011;11335;43.848;25.958;2023-03-14T11:31:13;6.82;;;3.08;;
22334;SDS011;11335;43.848;25.958;2023-03-14T11:37:12;4.90;;;2.30;;
22334;SDS011;11335;43.848;25.958;2023-03-14T11:40:10;5.43;;;2.30;;
22334;SDS011;11335;43.848;25.958;2023-03-14T11:43:08;5.80;;;2.17;;
22334;SDS011;11335;43.848;25.958;2023-03-14T11:45:57;7.70;;;2.55;;
22334;SDS011;11335;43.848;25.958;2023-03-14T11:49:01;6.28;;;2.33;;
22334;SDS011;11335;43.848;25.958;2023-03-14T11:51:50;4.93;;;2.28;;
22334;SDS011;11335;43.848;25.958;2023-03-14T11:54:39;2.83;;;1.60;;
22334;SDS011;11335;43.848;25.958;2023-03-14T11:57:28;3.42;;;2.25;;
22334;SDS011;11335;43.848;25.958;2023-03-14T12:00:20;5.28;;;2.17;;
22334;SDS011;11335;43.848;25.958;2023-03-14T12:08:50;5.28;;;1.92;;
22334;SDS011;11335;43.848;25.958;2023-03-14T12:11:48;3.85;;;2.00;;
22334;SDS011;11335;43.848;25.958;2023-03-14T12:14:37;3.17;;;2.10;;
22334;SDS011;11335;43.848;25.958;2023-03-14T12:17:52;4.20;;;2.03;;
22334;SDS011;11335;43.848;25.958;2023-03-14T12:20:38;5.20;;;1.70;;
22334;SDS011;11335;43.848;25.958;2023-03-14T12:23:24;5.72;;;2.40;;
22334;SDS011;11335;43.848;25.958;2023-03-14T12:31:43;5.60;;;1.70;;
22334;SDS011;11335;43.848;25.958;2023-03-14T12:34:30;9.43;;;2.28;;
22334;SDS011;11335;43.848;25.958;2023-03-14T12:43:24;13.27;;;1.88;;
22334;SDS011;11335;43.848;25.958;2023-03-14T12:49:05;4.82;;;1.23;;
22334;SDS011;11335;43.848;25.958;2023-03-14T12:51:53;5.13;;;1.80;;
22334;SDS011;11335;43.848;25.958;2023-03-14T12:57:33;8.43;;;1.83;;
22334;SDS011;11335;43.848;25.958;2023-03-14T13:00:22;2.63;;;1.30;;
22334;SDS011;11335;43.848;25.958;2023-03-14T13:06:01;5.57;;;1.60;;
22334;SDS011;11335;43.848;25.958;2023-03-14T13:08:47;2.88;;;1.52;;
22334;SDS011;11335;43.848;25.958;2023-03-14T13:11:32;25.55;;;3.42;;
22334;SDS011;11335;43.848;25.958;2023-03-14T13:14:18;13.95;;;2.28;;
22334;SDS011;11335;43.848;25.958;2023-03-14T13:17:04;4.28;;;1.40;;
22334;SDS011;11335;43.848;25.958;2023-03-14T13:19:52;4.32;;;1.40;;
22334;SDS011;11335;43.848;25.958;2023-03-14T13:22:38;35.20;;;3.17;;
22334;SDS011;11335;43.848;25.958;2023-03-14T13:25:24;8.82;;;2.42;;
22334;SDS011;11335;43.848;25.958;2023-03-14T13:28:14;4.13;;;1.35;;
22334;SDS011;11335;43.848;25.958;2023-03-14T13:31:01;6.68;;;2.20;;
22334;SDS011;11335;43.848;25.958;2023-03-14T13:33:56;11.20;;;1.42;;
22334;SDS011;11335;43.848;25.958;2023-03-14T13:36:41;6.25;;;2.15;;
22334;SDS011;11335;43.848;25.958;2023-03-14T13:39:27;9.20;;;2.30;;
22334;SDS011;11335;43.848;25.958;2023-03-14T13:42:14;5.50;;;2.10;;
22334;SDS011;11335;43.848;25.958;2023-03-14T13:45:00;2.33;;;1.38;;
22334;SDS011;11335;43.848;25.958;2023-03-14T13:47:46;2.45;;;1.63;;
22334;SDS011;11335;43.848;25.958;2023-03-14T13:50:36;3.08;;;1.48;;
22334;SDS011;11335;43.848;25.958;2023-03-14T13:53:22;11.43;;;2.20;;
22334;SDS011;11335;43.848;25.958;2023-03-14T13:56:08;5.78;;;1.55;;
22334;SDS011;11335;43.848;25.958;2023-03-14T13:58:54;7.30;;;1.42;;
22334;SDS011;11335;43.848;25.958;2023-03-14T14:01:40;6.47;;;1.55;;
22334;SDS011;11335;43.848;25.958;2023-03-14T14:04:26;4.30;;;1.55;;
22334;SDS011;11335;43.848;25.958;2023-03-14T14:07:15;10.18;;;1.58;;
22334;SDS011;11335;43.848;25.958;2023-03-14T14:10:05;1.85;;;1.00;;
22334;SDS011;11335;43.848;25.958;2023-03-14T14:12:56;8.27;;;1.40;;
22334;SDS011;11335;43.848;25.958;2023-03-14T14:15:44;5.35;;;1.73;;
22334;SDS011;11335;43.848;25.958;2023-03-14T14:18:31;5.03;;;1.60;;
22334;SDS011;11335;43.848;25.958;2023-03-14T14:21:17;2.28;;;1.05;;
22334;SDS011;11335;43.848;25.958;2023-03-14T14:24:03;4.10;;;1.20;;
22334;SDS011;11335;43.848;25.958;2023-03-14T14:26:50;12.77;;;2.15;;
22334;SDS011;11335;43.848;25.958;2023-03-14T14:29:36;5.22;;;1.20;;
22334;SDS011;11335;43.848;25.958;2023-03-14T14:32:22;6.43;;;1.10;;
22334;SDS011;11335;43.848;25.958;2023-03-14T14:35:09;5.35;;;1.27;;
22334;SDS011;11335;43.848;25.958;2023-03-14T14:37:55;2.72;;;1.10;;
22334;SDS011;11335;43.848;25.958;2023-03-14T14:40:44;60.60;;;5.72;;
22334;SDS011;11335;43.848;25.958;2023-03-14T14:43:31;7.88;;;1.60;;
22334;SDS011;11335;43.848;25.958;2023-03-14T14:46:20;6.32;;;1.85;;
22334;SDS011;11335;43.848;25.958;2023-03-14T14:49:08;9.35;;;1.27;;
22334;SDS011;11335;43.848;25.958;2023-03-14T14:52:00;4.22;;;1.60;;
22334;SDS011;11335;43.848;25.958;2023-03-14T14:54:47;14.38;;;1.90;;
22334;SDS011;11335;43.848;25.958;2023-03-14T14:57:37;4.85;;;1.20;;
22334;SDS011;11335;43.848;25.958;2023-03-14T15:00:26;9.70;;;1.25;;
22334;SDS011;11335;43.848;25.958;2023-03-14T15:03:12;15.10;;;2.00;;
22334;SDS011;11335;43.848;25.958;2023-03-14T15:06:00;7.65;;;1.90;;
22334;SDS011;11335;43.848;25.958;2023-03-14T15:08:47;11.85;;;1.65;;
22334;SDS011;11335;43.848;25.958;2023-03-14T15:11:32;10.25;;;1.98;;
22334;SDS011;11335;43.848;25.958;2023-03-14T15:14:18;32.05;;;2.50;;
22334;SDS011;11335;43.848;25.958;2023-03-14T15:17:05;8.20;;;2.05;;
22334;SDS011;11335;43.848;25.958;2023-03-14T15:19:50;31.23;;;2.78;;
22334;SDS011;11335;43.848;25.958;2023-03-14T15:22:36;10.43;;;2.75;;
22334;SDS011;11335;43.848;25.958;2023-03-14T15:25:21;17.02;;;2.85;;
22334;SDS011;11335;43.848;25.958;2023-03-14T15:30:59;12.73;;;2.47;;
22334;SDS011;11335;43.848;25.958;2023-03-14T15:33:44;24.65;;;2.88;;
22334;SDS011;11335;43.848;25.958;2023-03-14T15:36:32;6.05;;;1.80;;
22334;SDS011;11335;43.848;25.958;2023-03-14T15:39:18;11.65;;;2.03;;
22334;SDS011;11335;43.848;25.958;2023-03-14T15:42:03;22.80;;;2.40;;
22334;SDS011;11335;43.848;25.958;2023-03-14T15:44:49;10.98;;;2.17;;
22334;SDS011;11335;43.848;25.958;2023-03-14T15:47:34;12.70;;;2.40;;
22334;SDS011;11335;43.848;25.958;2023-03-14T15:50:20;14.73;;;2.10;;
22334;SDS011;11335;43.848;25.958;2023-03-14T15:53:06;9.13;;;1.60;;
22334;SDS011;11335;43.848;25.958;2023-03-14T15:55:52;8.07;;;1.73;;
22334;SDS011;11335;43.848;25.958;2023-03-14T15:58:37;5.50;;;1.98;;
22334;SDS011;11335;43.848;25.958;2023-03-14T16:01:25;11.00;;;2.67;;
22334;SDS011;11335;43.848;25.958;2023-03-14T16:04:11;6.32;;;2.20;;
22334;SDS011;11335;43.848;25.958;2023-03-14T16:06:57;13.07;;;2.65;;
22334;SDS011;11335;43.848;25.958;2023-03-14T16:09:42;11.20;;;2.70;;
22334;SDS011;11335;43.848;25.958;2023-03-14T16:12:28;9.98;;;3.22;;
22334;SDS011;11335;43.848;25.958;2023-03-14T16:15:14;13.05;;;4.20;;
22334;SDS011;11335;43.848;25.958;2023-03-14T16:17:59;12.68;;;3.97;;
22334;SDS011;11335;43.848;25.958;2023-03-14T16:20:50;12.82;;;4.22;;
22334;SDS011;11335;43.848;25.958;2023-03-14T16:23:36;9.27;;;3.45;;
22334;SDS011;11335;43.848;25.958;2023-03-14T16:26:22;10.73;;;3.35;;
22334;SDS011;11335;43.848;25.958;2023-03-14T16:29:07;10.13;;;2.80;;
22334;SDS011;11335;43.848;25.958;2023-03-14T16:31:53;12.23;;;2.10;;
22334;SDS011;11335;43.848;25.958;2023-03-14T16:34:40;13.10;;;2.65;;
22334;SDS011;11335;43.848;25.958;2023-03-14T16:37:25;4.60;;;2.10;;
22334;SDS011;11335;43.848;25.958;2023-03-14T16:40:11;15.45;;;3.72;;
22334;SDS011;11335;43.848;25.958;2023-03-14T16:42:57;14.05;;;4.45;;
22334;SDS011;11335;43.848;25.958;2023-03-14T16:45:43;9.73;;;2.72;;
22334;SDS011;11335;43.848;25.958;2023-03-14T16:48:28;7.50;;;2.47;;
22334;SDS011;11335;43.848;25.958;2023-03-14T16:51:14;7.07;;;2.95;;
22334;SDS011;11335;43.848;25.958;2023-03-14T16:54:00;11.35;;;3.55;;
22334;SDS011;11335;43.848;25.958;2023-03-14T16:56:46;4.28;;;2.10;;
22334;SDS011;11335;43.848;25.958;2023-03-14T16:59:33;24.70;;;2.85;;
22334;SDS011;11335;43.848;25.958;2023-03-14T17:02:20;13.13;;;2.63;;
22334;SDS011;11335;43.848;25.958;2023-03-14T17:05:05;6.65;;;2.47;;
22334;SDS011;11335;43.848;25.958;2023-03-14T17:07:51;11.07;;;2.38;;
22334;SDS011;11335;43.848;25.958;2023-03-14T17:10:37;7.22;;;2.85;;
22334;SDS011;11335;43.848;25.958;2023-03-14T17:13:22;5.32;;;2.90;;
22334;SDS011;11335;43.848;25.958;2023-03-14T17:16:10;10.88;;;3.33;;
22334;SDS011;11335;43.848;25.958;2023-03-14T17:18:56;6.25;;;3.28;;